sensor_id;sensor_type;location;lat;lon;timestamp;pressure;altitude;pressure_sealevel;temperature
65569;BMP180;52211;50.154;8.682;2023-06-22T00:00:40;100030.00;;;28.30
65569;BMP180;52211;50.154;8.682;2023-06-22T00:03:09;100060.00;;;28.30
65569;BMP180;52211;50.154;8.682;2023-06-22T00:05:38;100063.00;;;28.20
65569;BMP180;52211;50.154;8.682;2023-06-22T00:08:05;100070.00;;;28.20
65569;BMP180;52211;50.154;8.682;2023-06-22T00:10:35;100085.00;;;28.20
65569;BMP180;52211;50.154;8.682;2023-06-22T00:13:05;100100.00;;;28.30
65569;BMP180;52211;50.154;8.682;2023-06-22T00:15:33;100116.00;;;28.30
65569;BMP180;52211;50.154;8.682;2023-06-22T00:18:03;100135.00;;;28.30
65569;BMP180;52211;50.154;8.682;2023-06-22T00:20:30;100143.00;;;28.20
65569;BMP180;52211;50.154;8.682;2023-06-22T00:23:05;100153.00;;;28.20
65569;BMP180;52211;50.154;8.682;2023-06-22T00:25:40;100155.00;;;28.30
65569;BMP180;52211;50.154;8.682;2023-06-22T00:28:10;100169.00;;;28.20
65569;BMP180;52211;50.154;8.682;2023-06-22T00:30:39;100188.00;;;28.30
65569;BMP180;52211;50.154;8.682;2023-06-22T00:33:08;100201.00;;;28.30
65569;BMP180;52211;50.154;8.682;2023-06-22T00:35:35;100207.00;;;28.30
65569;BMP180;52211;50.154;8.682;2023-06-22T00:38:02;100219.00;;;28.20
65569;BMP180;52211;50.154;8.682;2023-06-22T00:40:32;100218.00;;;28.20
65569;BMP180;52211;50.154;8.682;2023-06-22T00:43:08;100228.00;;;28.20
65569;BMP180;52211;50.154;8.682;2023-06-22T00:45:40;100230.00;;;28.20
65569;BMP180;52211;50.154;8.682;2023-06-22T00:48:09;100239.00;;;28.20
65569;BMP180;52211;50.154;8.682;2023-06-22T00:50:37;100243.00;;;28.20
65569;BMP180;52211;50.154;8.682;2023-06-22T00:53:09;100253.00;;;28.20
65569;BMP180;52211;50.154;8.682;2023-06-22T00:55:45;100258.00;;;28.20
65569;BMP180;52211;50.154;8.682;2023-06-22T00:58:13;100251.00;;;28.20
65569;BMP180;52211;50.154;8.682;2023-06-22T01:00:43;100252.00;;;28.20
65569;BMP180;52211;50.154;8.682;2023-06-22T01:03:10;100253.00;;;28.20
65569;BMP180;52211;50.154;8.682;2023-06-22T01:05:41;100243.00;;;28.20
65569;BMP180;52211;50.154;8.682;2023-06-22T01:08:53;100248.00;;;28.10
65569;BMP180;52211;50.154;8.682;2023-06-22T01:11:36;100268.00;;;28.10
65569;BMP180;52211;50.154;8.682;2023-06-22T01:14:22;100293.00;;;28.10
65569;BMP180;52211;50.154;8.682;2023-06-22T01:16:57;100312.00;;;28.20
65569;BMP180;52211;50.154;8.682;2023-06-22T01:19:49;100339.00;;;28.10
65569;BMP180;52211;50.154;8.682;2023-06-22T01:22:26;100354.00;;;28.10
65569;BMP180;52211;50.154;8.682;2023-06-22T01:30:31;100364.00;;;27.80
65569;BMP180;52211;50.154;8.682;2023-06-22T01:33:04;100295.00;;;27.80
65569;BMP180;52211;50.154;8.682;2023-06-22T01:35:33;100193.00;;;27.70
65569;BMP180;52211;50.154;8.682;2023-06-22T01:38:06;100178.00;;;27.60
65569;BMP180;52211;50.154;8.682;2023-06-22T01:40:36;100190.00;;;27.50
65569;BMP180;52211;50.154;8.682;2023-06-22T01:43:06;100187.00;;;27.40
65569;BMP180;52211;50.154;8.682;2023-06-22T01:45:38;100166.00;;;27.40
65569;BMP180;52211;50.154;8.682;2023-06-22T01:48:08;100147.00;;;27.40
65569;BMP180;52211;50.154;8.682;2023-06-22T01:50:35;100119.00;;;27.30
65569;BMP180;52211;50.154;8.682;2023-06-22T01:53:09;100124.00;;;27.30
65569;BMP180;52211;50.154;8.682;2023-06-22T01:55:36;100120.00;;;27.20
65569;BMP180;52211;50.154;8.682;2023-06-22T01:58:03;100125.00;;;27.20
65569;BMP180;52211;50.154;8.682;2023-06-22T02:00:44;100164.00;;;27.20
65569;BMP180;52211;50.154;8.682;2023-06-22T02:03:26;100191.00;;;27.20
65569;BMP180;52211;50.154;8.682;2023-06-22T02:06:03;100200.00;;;27.10
65569;BMP180;52211;50.154;8.682;2023-06-22T02:08:53;100206.00;;;27.20
65569;BMP180;52211;50.154;8.682;2023-06-22T02:11:23;100191.00;;;27.20
65569;BMP180;52211;50.154;8.682;2023-06-22T02:13:53;100190.00;;;27.20
65569;BMP180;52211;50.154;8.682;2023-06-22T02:16:23;100180.00;;;27.10
65569;BMP180;52211;50.154;8.682;2023-06-22T02:18:52;100156.00;;;27.10
65569;BMP180;52211;50.154;8.682;2023-06-22T02:21:20;100167.00;;;27.10
65569;BMP180;52211;50.154;8.682;2023-06-22T02:23:50;100157.00;;;27.10
65569;BMP180;52211;50.154;8.682;2023-06-22T02:26:20;100160.00;;;27.10
65569;BMP180;52211;50.154;8.682;2023-06-22T02:28:47;100158.00;;;27.10
65569;BMP180;52211;50.154;8.682;2023-06-22T02:31:18;100152.00;;;27.10
65569;BMP180;52211;50.154;8.682;2023-06-22T02:33:47;100159.00;;;27.10
65569;BMP180;52211;50.154;8.682;2023-06-22T02:36:21;100152.00;;;27.10
65569;BMP180;52211;50.154;8.682;2023-06-22T02:38:51;100147.00;;;27.10
65569;BMP180;52211;50.154;8.682;2023-06-22T02:41:23;100154.00;;;27.10
65569;BMP180;52211;50.154;8.682;2023-06-22T02:43:49;100153.00;;;27.10
65569;BMP180;52211;50.154;8.682;2023-06-22T02:46:19;100156.00;;;27.10
65569;BMP180;52211;50.154;8.682;2023-06-22T02:48:48;100161.00;;;27.00
65569;BMP180;52211;50.154;8.682;2023-06-22T02:51:16;100170.00;;;27.00
65569;BMP180;52211;50.154;8.682;2023-06-22T02:53:43;100187.00;;;27.00
65569;BMP180;52211;50.154;8.682;2023-06-22T02:56:13;100177.00;;;27.00
65569;BMP180;52211;50.154;8.682;2023-06-22T02:58:46;100164.00;;;27.00
65569;BMP180;52211;50.154;8.682;2023-06-22T03:01:18;100145.00;;;27.00
65569;BMP180;52211;50.154;8.682;2023-06-22T03:03:51;100139.00;;;27.00
65569;BMP180;52211;50.154;8.682;2023-06-22T03:06:20;100138.00;;;27.00
65569;BMP180;52211;50.154;8.682;2023-06-22T03:08:59;100146.00;;;26.90
65569;BMP180;52211;50.154;8.682;2023-06-22T03:11:33;100147.00;;;26.90
65569;BMP180;52211;50.154;8.682;2023-06-22T03:14:01;100147.00;;;26.90
65569;BMP180;52211;50.154;8.682;2023-06-22T03:16:30;100142.00;;;26.90
65569;BMP180;52211;50.154;8.682;2023-06-22T03:19:05;100145.00;;;26.90
65569;BMP180;52211;50.154;8.682;2023-06-22T03:21:34;100140.00;;;26.90
65569;BMP180;52211;50.154;8.682;2023-06-22T03:24:01;100136.00;;;26.80
65569;BMP180;52211;50.154;8.682;2023-06-22T03:26:31;100128.00;;;26.80
65569;BMP180;52211;50.154;8.682;2023-06-22T03:28:58;100130.00;;;26.80
65569;BMP180;52211;50.154;8.682;2023-06-22T03:31:28;100122.00;;;26.80
65569;BMP180;52211;50.154;8.682;2023-06-22T03:33:58;100129.00;;;26.70
65569;BMP180;52211;50.154;8.682;2023-06-22T03:36:27;100124.00;;;26.70
65569;BMP180;52211;50.154;8.682;2023-06-22T03:38:57;100126.00;;;26.70
65569;BMP180;52211;50.154;8.682;2023-06-22T03:41:28;100129.00;;;26.60
65569;BMP180;52211;50.154;8.682;2023-06-22T03:43:57;100119.00;;;26.60
65569;BMP180;52211;50.154;8.682;2023-06-22T03:46:24;100127.00;;;26.60
65569;BMP180;52211;50.154;8.682;2023-06-22T03:48:53;100121.00;;;26.50
65569;BMP180;52211;50.154;8.682;2023-06-22T03:51:22;100126.00;;;26.50
65569;BMP180;52211;50.154;8.682;2023-06-22T03:53:52;100124.00;;;26.50
65569;BMP180;52211;50.154;8.682;2023-06-22T03:56:19;100116.00;;;26.50
65569;BMP180;52211;50.154;8.682;2023-06-22T03:58:50;100119.00;;;26.50
65569;BMP180;52211;50.154;8.682;2023-06-22T04:01:19;100118.00;;;26.50
65569;BMP180;52211;50.154;8.682;2023-06-22T04:03:46;100121.00;;;26.50
65569;BMP180;52211;50.154;8.682;2023-06-22T04:06:17;100125.00;;;26.50
65569;BMP180;52211;50.154;8.682;2023-06-22T04:08:49;100120.00;;;26.50
65569;BMP180;52211;50.154;8.682;2023-06-22T04:11:18;100129.00;;;26.50
65569;BMP180;52211;50.154;8.682;2023-06-22T04:13:45;100130.00;;;26.50
65569;BMP180;52211;50.154;8.682;2023-06-22T04:16:12;100143.00;;;26.50
65569;BMP180;52211;50.154;8.682;2023-06-22T04:18:41;100138.00;;;26.50
65569;BMP180;52211;50.154;8.682;2023-06-22T04:21:10;100132.00;;;26.50
65569;BMP180;52211;50.154;8.682;2023-06-22T04:23:36;100135.00;;;26.60
65569;BMP180;52211;50.154;8.682;2023-06-22T04:26:13;100143.00;;;26.60
65569;BMP180;52211;50.154;8.682;2023-06-22T04:28:43;100137.00;;;26.60
65569;BMP180;52211;50.154;8.682;2023-06-22T04:31:21;100130.00;;;26.60
65569;BMP180;52211;50.154;8.682;2023-06-22T04:33:48;100137.00;;;26.60
65569;BMP180;52211;50.154;8.682;2023-06-22T04:36:20;100135.00;;;26.60
65569;BMP180;52211;50.154;8.682;2023-06-22T04:38:49;100137.00;;;26.60
65569;BMP180;52211;50.154;8.682;2023-06-22T04:41:19;100140.00;;;26.60
65569;BMP180;52211;50.154;8.682;2023-06-22T04:43:51;100141.00;;;26.60
65569;BMP180;52211;50.154;8.682;2023-06-22T04:46:20;100141.00;;;26.60
65569;BMP180;52211;50.154;8.682;2023-06-22T04:48:49;100149.00;;;26.70
65569;BMP180;52211;50.154;8.682;2023-06-22T04:51:16;100151.00;;;26.70
65569;BMP180;52211;50.154;8.682;2023-06-22T04:53:53;100148.00;;;26.70
65569;BMP180;52211;50.154;8.682;2023-06-22T04:56:29;100138.00;;;26.70
65569;BMP180;52211;50.154;8.682;2023-06-22T04:59:04;100139.00;;;26.70
65569;BMP180;52211;50.154;8.682;2023-06-22T05:01:34;100145.00;;;26.70
65569;BMP180;52211;50.154;8.682;2023-06-22T05:04:06;100141.00;;;26.70
65569;BMP180;52211;50.154;8.682;2023-06-22T05:06:33;100134.00;;;26.70
65569;BMP180;52211;50.154;8.682;2023-06-22T05:09:06;100133.00;;;26.80
65569;BMP180;52211;50.154;8.682;2023-06-22T05:11:36;100137.00;;;26.80
65569;BMP180;52211;50.154;8.682;2023-06-22T05:14:03;100135.00;;;26.80
65569;BMP180;52211;50.154;8.682;2023-06-22T05:16:32;100135.00;;;26.80
65569;BMP180;52211;50.154;8.682;2023-06-22T05:19:03;100128.00;;;26.90
65569;BMP180;52211;50.154;8.682;2023-06-22T05:21:32;100125.00;;;26.90
65569;BMP180;52211;50.154;8.682;2023-06-22T05:23:59;100131.00;;;26.90
65569;BMP180;52211;50.154;8.682;2023-06-22T05:26:32;100128.00;;;26.90
65569;BMP180;52211;50.154;8.682;2023-06-22T05:29:01;100134.00;;;27.00
65569;BMP180;52211;50.154;8.682;2023-06-22T05:31:29;100132.00;;;27.00
65569;BMP180;52211;50.154;8.682;2023-06-22T05:34:01;100118.00;;;27.00
65569;BMP180;52211;50.154;8.682;2023-06-22T05:36:30;100121.00;;;27.00
65569;BMP180;52211;50.154;8.682;2023-06-22T05:38:57;100123.00;;;27.00
65569;BMP180;52211;50.154;8.682;2023-06-22T05:41:25;100122.00;;;27.00
65569;BMP180;52211;50.154;8.682;2023-06-22T05:43:54;100122.00;;;27.00
65569;BMP180;52211;50.154;8.682;2023-06-22T05:46:25;100116.00;;;27.00
65569;BMP180;52211;50.154;8.682;2023-06-22T05:48:55;100110.00;;;27.00
65569;BMP180;52211;50.154;8.682;2023-06-22T05:51:21;100105.00;;;27.10
65569;BMP180;52211;50.154;8.682;2023-06-22T05:53:51;100118.00;;;27.10
65569;BMP180;52211;50.154;8.682;2023-06-22T05:56:18;100116.00;;;27.10
65569;BMP180;52211;50.154;8.682;2023-06-22T05:58:49;100119.00;;;27.10
65569;BMP180;52211;50.154;8.682;2023-06-22T06:01:18;100119.00;;;27.10
65569;BMP180;52211;50.154;8.682;2023-06-22T06:03:48;100117.00;;;27.10
65569;BMP180;52211;50.154;8.682;2023-06-22T06:06:17;100112.00;;;27.20
65569;BMP180;52211;50.154;8.682;2023-06-22T06:08:44;100113.00;;;27.20
65569;BMP180;52211;50.154;8.682;2023-06-22T06:11:15;100111.00;;;27.20
65569;BMP180;52211;50.154;8.682;2023-06-22T06:13:42;100115.00;;;27.20
65569;BMP180;52211;50.154;8.682;2023-06-22T06:16:14;100107.00;;;27.20
65569;BMP180;52211;50.154;8.682;2023-06-22T06:18:41;100115.00;;;27.20
65569;BMP180;52211;50.154;8.682;2023-06-22T06:21:08;100108.00;;;27.20
65569;BMP180;52211;50.154;8.682;2023-06-22T06:23:35;100105.00;;;27.20
65569;BMP180;52211;50.154;8.682;2023-06-22T06:26:04;100098.00;;;27.20
65569;BMP180;52211;50.154;8.682;2023-06-22T06:28:36;100098.00;;;27.20
65569;BMP180;52211;50.154;8.682;2023-06-22T06:31:05;100098.00;;;27.30
65569;BMP180;52211;50.154;8.682;2023-06-22T06:33:37;100093.00;;;27.30
65569;BMP180;52211;50.154;8.682;2023-06-22T06:36:06;100096.00;;;27.30
65569;BMP180;52211;50.154;8.682;2023-06-22T06:38:37;100094.00;;;27.40
65569;BMP180;52211;50.154;8.682;2023-06-22T06:41:06;100096.00;;;27.40
65569;BMP180;52211;50.154;8.682;2023-06-22T06:43:33;100097.00;;;27.50
65569;BMP180;52211;50.154;8.682;2023-06-22T06:46:00;100086.00;;;27.50
65569;BMP180;52211;50.154;8.682;2023-06-22T06:48:32;100091.00;;;27.60
65569;BMP180;52211;50.154;8.682;2023-06-22T06:51:02;100097.00;;;27.60
65569;BMP180;52211;50.154;8.682;2023-06-22T06:53:31;100088.00;;;27.70
65569;BMP180;52211;50.154;8.682;2023-06-22T06:55:58;100082.00;;;27.70
65569;BMP180;52211;50.154;8.682;2023-06-22T06:58:29;100078.00;;;27.80
65569;BMP180;52211;50.154;8.682;2023-06-22T07:00:59;100068.00;;;27.90
65569;BMP180;52211;50.154;8.682;2023-06-22T07:03:29;100076.00;;;27.90
65569;BMP180;52211;50.154;8.682;2023-06-22T07:06:02;100077.00;;;28.00
65569;BMP180;52211;50.154;8.682;2023-06-22T07:08:29;100083.00;;;28.00
65569;BMP180;52211;50.154;8.682;2023-06-22T07:10:57;100086.00;;;28.10
65569;BMP180;52211;50.154;8.682;2023-06-22T07:13:24;100081.00;;;28.10
65569;BMP180;52211;50.154;8.682;2023-06-22T07:15:54;100080.00;;;28.20
65569;BMP180;52211;50.154;8.682;2023-06-22T07:18:20;100073.00;;;28.20
65569;BMP180;52211;50.154;8.682;2023-06-22T07:20:50;100068.00;;;28.30
65569;BMP180;52211;50.154;8.682;2023-06-22T07:23:17;100068.00;;;28.30
65569;BMP180;52211;50.154;8.682;2023-06-22T07:25:46;100068.00;;;28.30
65569;BMP180;52211;50.154;8.682;2023-06-22T07:28:16;100066.00;;;28.30
65569;BMP180;52211;50.154;8.682;2023-06-22T07:30:47;100062.00;;;28.30
65569;BMP180;52211;50.154;8.682;2023-06-22T07:33:14;100066.00;;;28.40
65569;BMP180;52211;50.154;8.682;2023-06-22T07:35:41;100063.00;;;28.40
65569;BMP180;52211;50.154;8.682;2023-06-22T07:38:11;100059.00;;;28.50
65569;BMP180;52211;50.154;8.682;2023-06-22T07:40:38;100055.00;;;28.50
65569;BMP180;52211;50.154;8.682;2023-06-22T07:43:08;100052.00;;;28.50
65569;BMP180;52211;50.154;8.682;2023-06-22T07:45:38;100046.00;;;28.60
65569;BMP180;52211;50.154;8.682;2023-06-22T07:48:09;100048.00;;;28.70
65569;BMP180;52211;50.154;8.682;2023-06-22T07:50:36;100041.00;;;28.70
65569;BMP180;52211;50.154;8.682;2023-06-22T07:53:07;100033.00;;;28.80
65569;BMP180;52211;50.154;8.682;2023-06-22T07:55:37;100039.00;;;28.80
65569;BMP180;52211;50.154;8.682;2023-06-22T07:58:06;100043.00;;;28.90
65569;BMP180;52211;50.154;8.682;2023-06-22T08:00:34;100035.00;;;28.90
65569;BMP180;52211;50.154;8.682;2023-06-22T08:03:02;100038.00;;;29.00
65569;BMP180;52211;50.154;8.682;2023-06-22T08:05:36;100042.00;;;29.00
65569;BMP180;52211;50.154;8.682;2023-06-22T08:08:08;100039.00;;;29.10
65569;BMP180;52211;50.154;8.682;2023-06-22T08:10:34;100036.00;;;29.20
65569;BMP180;52211;50.154;8.682;2023-06-22T08:13:02;100032.00;;;29.20
65569;BMP180;52211;50.154;8.682;2023-06-22T08:15:32;100030.00;;;29.30
65569;BMP180;52211;50.154;8.682;2023-06-22T08:17:59;100036.00;;;29.40
65569;BMP180;52211;50.154;8.682;2023-06-22T08:20:30;100030.00;;;29.50
65569;BMP180;52211;50.154;8.682;2023-06-22T08:22:57;100026.00;;;29.50
65569;BMP180;52211;50.154;8.682;2023-06-22T08:25:29;100033.00;;;29.60
65569;BMP180;52211;50.154;8.682;2023-06-22T08:27:59;100014.00;;;29.70
65569;BMP180;52211;50.154;8.682;2023-06-22T08:30:27;100018.00;;;29.80
65569;BMP180;52211;50.154;8.682;2023-06-22T08:32:56;100014.00;;;29.90
65569;BMP180;52211;50.154;8.682;2023-06-22T08:35:26;100016.00;;;30.00
65569;BMP180;52211;50.154;8.682;2023-06-22T08:37:57;100008.00;;;30.00
65569;BMP180;52211;50.154;8.682;2023-06-22T08:40:28;100017.00;;;30.10
65569;BMP180;52211;50.154;8.682;2023-06-22T08:42:58;100013.00;;;30.20
65569;BMP180;52211;50.154;8.682;2023-06-22T08:45:27;100007.00;;;30.30
65569;BMP180;52211;50.154;8.682;2023-06-22T08:47:56;100000.00;;;30.40
65569;BMP180;52211;50.154;8.682;2023-06-22T08:50:23;100006.00;;;30.50
65569;BMP180;52211;50.154;8.682;2023-06-22T08:52:53;99993.00;;;30.50
65569;BMP180;52211;50.154;8.682;2023-06-22T08:55:24;100003.00;;;30.60
65569;BMP180;52211;50.154;8.682;2023-06-22T08:57:51;99998.00;;;30.70
65569;BMP180;52211;50.154;8.682;2023-06-22T09:00:19;99990.00;;;30.70
65569;BMP180;52211;50.154;8.682;2023-06-22T09:02:49;99984.00;;;30.80
65569;BMP180;52211;50.154;8.682;2023-06-22T09:05:18;99979.00;;;30.90
65569;BMP180;52211;50.154;8.682;2023-06-22T09:07:50;99986.00;;;31.00
65569;BMP180;52211;50.154;8.682;2023-06-22T09:10:22;99984.00;;;31.10
65569;BMP180;52211;50.154;8.682;2023-06-22T09:12:49;99988.00;;;31.20
65569;BMP180;52211;50.154;8.682;2023-06-22T09:15:16;99992.00;;;31.30
65569;BMP180;52211;50.154;8.682;2023-06-22T09:17:57;99991.00;;;31.30
65569;BMP180;52211;50.154;8.682;2023-06-22T09:20:27;99988.00;;;31.40
65569;BMP180;52211;50.154;8.682;2023-06-22T09:22:58;99982.00;;;31.50
65569;BMP180;52211;50.154;8.682;2023-06-22T09:25:27;99977.00;;;31.60
65569;BMP180;52211;50.154;8.682;2023-06-22T09:27:57;99973.00;;;31.70
65569;BMP180;52211;50.154;8.682;2023-06-22T09:30:26;99974.00;;;31.80
65569;BMP180;52211;50.154;8.682;2023-06-22T09:32:55;99973.00;;;31.90
65569;BMP180;52211;50.154;8.682;2023-06-22T09:35:25;99973.00;;;31.90
65569;BMP180;52211;50.154;8.682;2023-06-22T09:37:52;99968.00;;;32.00
65569;BMP180;52211;50.154;8.682;2023-06-22T09:40:22;99962.00;;;32.10
65569;BMP180;52211;50.154;8.682;2023-06-22T09:42:53;99955.00;;;32.20
65569;BMP180;52211;50.154;8.682;2023-06-22T09:45:20;99939.00;;;32.30
65569;BMP180;52211;50.154;8.682;2023-06-22T09:47:47;99944.00;;;32.40
65569;BMP180;52211;50.154;8.682;2023-06-22T09:50:18;99939.00;;;32.50
65569;BMP180;52211;50.154;8.682;2023-06-22T09:52:47;99934.00;;;32.60
65569;BMP180;52211;50.154;8.682;2023-06-22T09:55:22;99938.00;;;32.70
65569;BMP180;52211;50.154;8.682;2023-06-22T09:57:51;99938.00;;;32.70
65569;BMP180;52211;50.154;8.682;2023-06-22T10:00:18;99931.00;;;32.80
65569;BMP180;52211;50.154;8.682;2023-06-22T10:02:46;99928.00;;;32.90
65569;BMP180;52211;50.154;8.682;2023-06-22T10:05:16;99927.00;;;33.00
65569;BMP180;52211;50.154;8.682;2023-06-22T10:07:48;99931.00;;;33.10
65569;BMP180;52211;50.154;8.682;2023-06-22T10:10:17;99921.00;;;33.20
65569;BMP180;52211;50.154;8.682;2023-06-22T10:12:55;99928.00;;;33.30
65569;BMP180;52211;50.154;8.682;2023-06-22T10:15:27;99918.00;;;33.40
65569;BMP180;52211;50.154;8.682;2023-06-22T10:17:57;99911.00;;;33.40
65569;BMP180;52211;50.154;8.682;2023-06-22T10:20:24;99910.00;;;33.60
65569;BMP180;52211;50.154;8.682;2023-06-22T10:22:52;99897.00;;;33.70
65569;BMP180;52211;50.154;8.682;2023-06-22T10:25:22;99890.00;;;33.80
65569;BMP180;52211;50.154;8.682;2023-06-22T10:27:51;99889.00;;;33.90
65569;BMP180;52211;50.154;8.682;2023-06-22T10:30:18;99888.00;;;33.90
65569;BMP180;52211;50.154;8.682;2023-06-22T10:32:45;99877.00;;;34.00
65569;BMP180;52211;50.154;8.682;2023-06-22T10:35:17;99883.00;;;34.00
65569;BMP180;52211;50.154;8.682;2023-06-22T10:37:45;99874.00;;;34.00
65569;BMP180;52211;50.154;8.682;2023-06-22T10:40:16;99869.00;;;34.10
65569;BMP180;52211;50.154;8.682;2023-06-22T10:42:48;99863.00;;;34.10
65569;BMP180;52211;50.154;8.682;2023-06-22T10:45:16;99857.00;;;34.20
65569;BMP180;52211;50.154;8.682;2023-06-22T10:47:48;99857.00;;;34.20
65569;BMP180;52211;50.154;8.682;2023-06-22T10:50:18;99850.00;;;34.30
65569;BMP180;52211;50.154;8.682;2023-06-22T10:52:50;99842.00;;;34.40
65569;BMP180;52211;50.154;8.682;2023-06-22T10:55:22;99835.00;;;34.60
65569;BMP180;52211;50.154;8.682;2023-06-22T10:57:57;99837.00;;;34.70
65569;BMP180;52211;50.154;8.682;2023-06-22T11:00:26;99827.00;;;34.90
65569;BMP180;52211;50.154;8.682;2023-06-22T11:02:53;99822.00;;;35.10
65569;BMP180;52211;50.154;8.682;2023-06-22T11:05:22;99806.00;;;35.30
65569;BMP180;52211;50.154;8.682;2023-06-22T11:07:49;99808.00;;;35.50
65569;BMP180;52211;50.154;8.682;2023-06-22T11:10:22;99806.00;;;35.60
65569;BMP180;52211;50.154;8.682;2023-06-22T11:12:49;99796.00;;;35.90
65569;BMP180;52211;50.154;8.682;2023-06-22T11:15:19;99797.00;;;36.00
65569;BMP180;52211;50.154;8.682;2023-06-22T11:17:53;99786.00;;;36.20
65569;BMP180;52211;50.154;8.682;2023-06-22T11:20:23;99786.00;;;36.40
65569;BMP180;52211;50.154;8.682;2023-06-22T11:22:52;99780.00;;;36.70
65569;BMP180;52211;50.154;8.682;2023-06-22T11:25:24;99787.00;;;36.90
65569;BMP180;52211;50.154;8.682;2023-06-22T11:27:51;99779.00;;;37.10
65569;BMP180;52211;50.154;8.682;2023-06-22T11:30:23;99773.00;;;37.20
65569;BMP180;52211;50.154;8.682;2023-06-22T11:32:59;99766.00;;;37.30
65569;BMP180;52211;50.154;8.682;2023-06-22T11:35:29;99762.00;;;37.30
65569;BMP180;52211;50.154;8.682;2023-06-22T11:37:58;99764.00;;;37.40
65569;BMP180;52211;50.154;8.682;2023-06-22T11:40:30;99756.00;;;37.60
65569;BMP180;52211;50.154;8.682;2023-06-22T11:42:57;99753.00;;;37.80
65569;BMP180;52211;50.154;8.682;2023-06-22T11:45:27;99750.00;;;37.90
65569;BMP180;52211;50.154;8.682;2023-06-22T11:47:58;99757.00;;;38.10
65569;BMP180;52211;50.154;8.682;2023-06-22T11:50:27;99754.00;;;38.30
65569;BMP180;52211;50.154;8.682;2023-06-22T11:52:59;99749.00;;;38.50
65569;BMP180;52211;50.154;8.682;2023-06-22T11:55:29;99737.00;;;38.50
65569;BMP180;52211;50.154;8.682;2023-06-22T11:57:57;99737.00;;;38.60
65569;BMP180;52211;50.154;8.682;2023-06-22T12:00:29;99742.00;;;38.60
65569;BMP180;52211;50.154;8.682;2023-06-22T12:03:14;99732.00;;;38.60
65569;BMP180;52211;50.154;8.682;2023-06-22T12:05:47;99731.00;;;38.70
65569;BMP180;52211;50.154;8.682;2023-06-22T12:08:16;99717.00;;;38.90
65569;BMP180;52211;50.154;8.682;2023-06-22T12:10:43;99726.00;;;39.20
65569;BMP180;52211;50.154;8.682;2023-06-22T12:13:17;99721.00;;;39.40
65569;BMP180;52211;50.154;8.682;2023-06-22T12:15:46;99733.00;;;39.60
65569;BMP180;52211;50.154;8.682;2023-06-22T12:18:16;99721.00;;;39.70
65569;BMP180;52211;50.154;8.682;2023-06-22T12:20:43;99724.00;;;39.70
65569;BMP180;52211;50.154;8.682;2023-06-22T12:23:15;99723.00;;;39.70
65569;BMP180;52211;50.154;8.682;2023-06-22T12:25:41;99723.00;;;39.80
65569;BMP180;52211;50.154;8.682;2023-06-22T12:28:11;99711.00;;;39.90
65569;BMP180;52211;50.154;8.682;2023-06-22T12:30:38;99710.00;;;40.00
65569;BMP180;52211;50.154;8.682;2023-06-22T12:33:07;99705.00;;;40.10
65569;BMP180;52211;50.154;8.682;2023-06-22T12:35:35;99707.00;;;40.30
65569;BMP180;52211;50.154;8.682;2023-06-22T12:38:06;99698.00;;;40.50
65569;BMP180;52211;50.154;8.682;2023-06-22T12:40:35;99703.00;;;40.70
65569;BMP180;52211;50.154;8.682;2023-06-22T12:43:02;99703.00;;;40.80
65569;BMP180;52211;50.154;8.682;2023-06-22T12:45:33;99690.00;;;41.00
65569;BMP180;52211;50.154;8.682;2023-06-22T12:48:04;99692.00;;;41.10
65569;BMP180;52211;50.154;8.682;2023-06-22T12:50:31;99700.00;;;41.10
65569;BMP180;52211;50.154;8.682;2023-06-22T12:53:03;99707.00;;;41.10
65569;BMP180;52211;50.154;8.682;2023-06-22T12:55:31;99698.00;;;41.00
65569;BMP180;52211;50.154;8.682;2023-06-22T12:58:02;99693.00;;;40.90
65569;BMP180;52211;50.154;8.682;2023-06-22T13:00:29;99694.00;;;40.80
65569;BMP180;52211;50.154;8.682;2023-06-22T13:02:56;99703.00;;;40.70
65569;BMP180;52211;50.154;8.682;2023-06-22T13:05:25;99697.00;;;40.60
65569;BMP180;52211;50.154;8.682;2023-06-22T13:07:57;99702.00;;;40.40
65569;BMP180;52211;50.154;8.682;2023-06-22T13:10:24;99704.00;;;40.30
65569;BMP180;52211;50.154;8.682;2023-06-22T13:12:53;99699.00;;;40.20
65569;BMP180;52211;50.154;8.682;2023-06-22T13:15:28;99706.00;;;40.10
65569;BMP180;52211;50.154;8.682;2023-06-22T13:17:58;99697.00;;;39.90
65569;BMP180;52211;50.154;8.682;2023-06-22T13:20:25;99695.00;;;39.80
65569;BMP180;52211;50.154;8.682;2023-06-22T13:22:56;99691.00;;;39.60
65569;BMP180;52211;50.154;8.682;2023-06-22T13:25:26;99683.00;;;39.40
65569;BMP180;52211;50.154;8.682;2023-06-22T13:27:59;99694.00;;;39.20
65569;BMP180;52211;50.154;8.682;2023-06-22T13:30:33;99678.00;;;39.10
65569;BMP180;52211;50.154;8.682;2023-06-22T13:33:02;99669.00;;;39.20
65569;BMP180;52211;50.154;8.682;2023-06-22T13:35:34;99670.00;;;39.30
65569;BMP180;52211;50.154;8.682;2023-06-22T13:38:04;99661.00;;;39.40
65569;BMP180;52211;50.154;8.682;2023-06-22T13:40:31;99666.00;;;39.60
65569;BMP180;52211;50.154;8.682;2023-06-22T13:42:58;99664.00;;;39.60
65569;BMP180;52211;50.154;8.682;2023-06-22T13:45:29;99657.00;;;39.60
65569;BMP180;52211;50.154;8.682;2023-06-22T13:47:57;99644.00;;;39.50
65569;BMP180;52211;50.154;8.682;2023-06-22T13:50:26;99625.00;;;39.50
65569;BMP180;52211;50.154;8.682;2023-06-22T13:52:58;99627.00;;;39.50
65569;BMP180;52211;50.154;8.682;2023-06-22T13:55:25;99624.00;;;39.40
65569;BMP180;52211;50.154;8.682;2023-06-22T13:57:53;99619.00;;;39.30
65569;BMP180;52211;50.154;8.682;2023-06-22T14:00:25;99622.00;;;39.20
65569;BMP180;52211;50.154;8.682;2023-06-22T14:02:57;99614.00;;;39.20
65569;BMP180;52211;50.154;8.682;2023-06-22T14:05:29;99605.00;;;39.30
65569;BMP180;52211;50.154;8.682;2023-06-22T14:07:58;99599.00;;;39.50
65569;BMP180;52211;50.154;8.682;2023-06-22T14:10:28;99590.00;;;39.60
65569;BMP180;52211;50.154;8.682;2023-06-22T14:12:55;99579.00;;;39.80
65569;BMP180;52211;50.154;8.682;2023-06-22T14:15:29;99567.00;;;40.00
65569;BMP180;52211;50.154;8.682;2023-06-22T14:18:00;99553.00;;;40.20
65569;BMP180;52211;50.154;8.682;2023-06-22T14:20:32;99554.00;;;40.40
65569;BMP180;52211;50.154;8.682;2023-06-22T14:23:09;99554.00;;;40.60